sensor_id;sensor_type;location;lat;lon;timestamp;P1;durP1;ratioP1;P2;durP2;ratioP2
24279;SDS011;12395;42.808;23.408;2023-10-13T00:01:57;7.30;;;4.10;;
24279;SDS011;12395;42.808;23.408;2023-10-13T00:04:29;9.35;;;4.18;;
24279;SDS011;12395;42.808;23.408;2023-10-13T00:06:57;7.10;;;4.18;;
24279;SDS011;12395;42.808;23.408;2023-10-13T00:09:24;7.20;;;3.90;;
24279;SDS011;12395;42.808;23.408;2023-10-13T00:12:02;9.33;;;3.93;;
24279;SDS011;12395;42.808;23.408;2023-10-13T00:14:28;8.33;;;4.00;;
24279;SDS011;12395;42.808;23.408;2023-10-13T00:17:00;8.77;;;4.22;;
24279;SDS011;12395;42.808;23.408;2023-10-13T00:19:37;8.93;;;4.20;;
24279;SDS011;12395;42.808;23.408;2023-10-13T00:22:07;6.63;;;3.92;;
24279;SDS011;12395;42.808;23.408;2023-10-13T00:24:40;6.53;;;3.60;;
24279;SDS011;12395;42.808;23.408;2023-10-13T00:30:04;8.05;;;4.07;;
24279;SDS011;12395;42.808;23.408;2023-10-13T00:32:47;8.00;;;4.13;;
24279;SDS011;12395;42.808;23.408;2023-10-13T00:35:20;8.93;;;4.10;;
24279;SDS011;12395;42.808;23.408;2023-10-13T00:38:07;7.65;;;4.00;;
24279;SDS011;12395;42.808;23.408;2023-10-13T00:40:41;9.05;;;4.03;;
24279;SDS011;12395;42.808;23.408;2023-10-13T00:43:08;9.02;;;4.20;;
24279;SDS011;12395;42.808;23.408;2023-10-13T00:48:35;9.40;;;3.92;;
24279;SDS011;12395;42.808;23.408;2023-10-13T00:51:07;8.60;;;3.90;;
24279;SDS011;12395;42.808;23.408;2023-10-13T00:53:43;7.93;;;4.05;;
24279;SDS011;12395;42.808;23.408;2023-10-13T00:56:13;7.47;;;4.28;;
24279;SDS011;12395;42.808;23.408;2023-10-13T00:58:52;8.40;;;4.55;;
24279;SDS011;12395;42.808;23.408;2023-10-13T01:01:21;9.57;;;4.57;;
24279;SDS011;12395;42.808;23.408;2023-10-13T01:03:47;7.05;;;4.47;;
24279;SDS011;12395;42.808;23.408;2023-10-13T01:06:17;8.07;;;4.22;;
24279;SDS011;12395;42.808;23.408;2023-10-13T01:08:47;8.80;;;4.15;;
24279;SDS011;12395;42.808;23.408;2023-10-13T01:11:19;8.32;;;4.18;;
24279;SDS011;12395;42.808;23.408;2023-10-13T01:13:49;8.40;;;4.47;;
24279;SDS011;12395;42.808;23.408;2023-10-13T01:16:16;7.60;;;4.03;;
24279;SDS011;12395;42.808;23.408;2023-10-13T01:18:42;8.57;;;4.68;;
24279;SDS011;12395;42.808;23.408;2023-10-13T01:21:17;8.75;;;3.95;;
24279;SDS011;12395;42.808;23.408;2023-10-13T01:23:45;9.45;;;4.43;;
24279;SDS011;12395;42.808;23.408;2023-10-13T01:26:12;9.57;;;4.70;;
24279;SDS011;12395;42.808;23.408;2023-10-13T01:28:42;8.88;;;4.18;;
24279;SDS011;12395;42.808;23.408;2023-10-13T01:31:12;8.00;;;4.15;;
24279;SDS011;12395;42.808;23.408;2023-10-13T01:34:03;8.68;;;4.43;;
24279;SDS011;12395;42.808;23.408;2023-10-13T01:36:29;7.63;;;3.95;;
24279;SDS011;12395;42.808;23.408;2023-10-13T01:39:00;7.97;;;4.30;;
24279;SDS011;12395;42.808;23.408;2023-10-13T01:41:26;9.38;;;4.80;;
24279;SDS011;12395;42.808;23.408;2023-10-13T01:43:52;8.20;;;4.60;;
24279;SDS011;12395;42.808;23.408;2023-10-13T01:46:17;9.40;;;4.60;;
24279;SDS011;12395;42.808;23.408;2023-10-13T01:48:46;7.88;;;4.55;;
24279;SDS011;12395;42.808;23.408;2023-10-13T01:51:12;8.32;;;4.30;;
24279;SDS011;12395;42.808;23.408;2023-10-13T01:53:38;8.50;;;4.60;;
24279;SDS011;12395;42.808;23.408;2023-10-13T01:56:05;8.38;;;4.70;;
24279;SDS011;12395;42.808;23.408;2023-10-13T01:58:35;9.70;;;4.53;;
24279;SDS011;12395;42.808;23.408;2023-10-13T02:01:07;8.95;;;4.97;;
24279;SDS011;12395;42.808;23.408;2023-10-13T02:03:34;8.57;;;4.70;;
24279;SDS011;12395;42.808;23.408;2023-10-13T02:06:01;8.80;;;4.53;;
24279;SDS011;12395;42.808;23.408;2023-10-13T02:08:29;7.88;;;4.45;;
24279;SDS011;12395;42.808;23.408;2023-10-13T02:10:56;8.43;;;4.78;;
24279;SDS011;12395;42.808;23.408;2023-10-13T02:13:23;9.25;;;4.30;;
24279;SDS011;12395;42.808;23.408;2023-10-13T02:15:53;8.15;;;4.60;;
24279;SDS011;12395;42.808;23.408;2023-10-13T02:18:21;9.63;;;4.40;;
24279;SDS011;12395;42.808;23.408;2023-10-13T02:21:11;7.63;;;4.57;;
24279;SDS011;12395;42.808;23.408;2023-10-13T02:23:39;9.40;;;4.57;;
24279;SDS011;12395;42.808;23.408;2023-10-13T02:26:10;8.65;;;4.70;;
24279;SDS011;12395;42.808;23.408;2023-10-13T02:28:55;9.60;;;5.18;;
24279;SDS011;12395;42.808;23.408;2023-10-13T02:31:22;9.00;;;5.03;;
24279;SDS011;12395;42.808;23.408;2023-10-13T02:33:49;10.60;;;5.22;;
24279;SDS011;12395;42.808;23.408;2023-10-13T02:36:15;9.05;;;4.75;;
24279;SDS011;12395;42.808;23.408;2023-10-13T02:38:47;8.27;;;5.00;;
24279;SDS011;12395;42.808;23.408;2023-10-13T02:41:17;7.75;;;4.55;;
24279;SDS011;12395;42.808;23.408;2023-10-13T02:43:54;7.35;;;4.32;;
24279;SDS011;12395;42.808;23.408;2023-10-13T02:46:20;9.23;;;4.80;;
24279;SDS011;12395;42.808;23.408;2023-10-13T02:48:53;10.27;;;5.18;;
24279;SDS011;12395;42.808;23.408;2023-10-13T02:51:19;11.75;;;5.47;;
24279;SDS011;12395;42.808;23.408;2023-10-13T02:54:00;9.23;;;4.93;;
24279;SDS011;12395;42.808;23.408;2023-10-13T02:56:35;8.55;;;5.22;;
24279;SDS011;12395;42.808;23.408;2023-10-13T02:59:01;10.35;;;5.80;;
24279;SDS011;12395;42.808;23.408;2023-10-13T03:01:34;8.52;;;5.50;;
24279;SDS011;12395;42.808;23.408;2023-10-13T03:04:00;9.88;;;5.20;;
24279;SDS011;12395;42.808;23.408;2023-10-13T03:06:28;9.02;;;5.28;;
24279;SDS011;12395;42.808;23.408;2023-10-13T03:09:00;9.48;;;5.03;;
24279;SDS011;12395;42.808;23.408;2023-10-13T03:11:42;7.45;;;4.72;;
24279;SDS011;12395;42.808;23.408;2023-10-13T03:14:22;8.88;;;5.30;;
24279;SDS011;12395;42.808;23.408;2023-10-13T03:16:54;8.70;;;4.97;;
24279;SDS011;12395;42.808;23.408;2023-10-13T03:19:20;11.10;;;5.47;;
24279;SDS011;12395;42.808;23.408;2023-10-13T03:21:46;9.52;;;5.30;;
24279;SDS011;12395;42.808;23.408;2023-10-13T03:24:20;10.45;;;5.57;;
24279;SDS011;12395;42.808;23.408;2023-10-13T03:26:58;11.50;;;5.18;;
24279;SDS011;12395;42.808;23.408;2023-10-13T03:29:37;8.80;;;5.40;;
24279;SDS011;12395;42.808;23.408;2023-10-13T03:32:07;10.18;;;5.63;;
24279;SDS011;12395;42.808;23.408;2023-10-13T03:34:36;8.38;;;5.30;;
24279;SDS011;12395;42.808;23.408;2023-10-13T03:37:17;9.88;;;5.38;;
24279;SDS011;12395;42.808;23.408;2023-10-13T03:42:11;8.85;;;4.80;;
24279;SDS011;12395;42.808;23.408;2023-10-13T03:44:46;8.23;;;4.63;;
24279;SDS011;12395;42.808;23.408;2023-10-13T03:47:12;10.15;;;4.70;;
24279;SDS011;12395;42.808;23.408;2023-10-13T03:49:51;10.07;;;5.35;;
24279;SDS011;12395;42.808;23.408;2023-10-13T03:52:38;11.80;;;6.13;;
24279;SDS011;12395;42.808;23.408;2023-10-13T03:55:03;10.65;;;6.15;;
24279;SDS011;12395;42.808;23.408;2023-10-13T03:57:31;11.30;;;5.75;;
24279;SDS011;12395;42.808;23.408;2023-10-13T04:02:33;8.75;;;5.20;;
24279;SDS011;12395;42.808;23.408;2023-10-13T04:04:58;10.35;;;5.25;;
24279;SDS011;12395;42.808;23.408;2023-10-13T04:07:32;10.27;;;5.50;;
24279;SDS011;12395;42.808;23.408;2023-10-13T04:09:58;10.45;;;5.30;;
24279;SDS011;12395;42.808;23.408;2023-10-13T04:12:41;8.23;;;4.90;;
24279;SDS011;12395;42.808;23.408;2023-10-13T04:15:25;9.68;;;5.57;;
24279;SDS011;12395;42.808;23.408;2023-10-13T04:18:02;8.65;;;5.38;;
24279;SDS011;12395;42.808;23.408;2023-10-13T04:20:39;11.00;;;5.75;;
24279;SDS011;12395;42.808;23.408;2023-10-13T04:23:04;11.85;;;5.75;;
24279;SDS011;12395;42.808;23.408;2023-10-13T04:25:43;10.32;;;6.47;;
24279;SDS011;12395;42.808;23.408;2023-10-13T04:28:32;10.90;;;6.63;;
24279;SDS011;12395;42.808;23.408;2023-10-13T04:31:02;13.13;;;7.22;;
24279;SDS011;12395;42.808;23.408;2023-10-13T04:33:37;12.48;;;6.80;;
24279;SDS011;12395;42.808;23.408;2023-10-13T04:36:16;11.60;;;6.82;;
24279;SDS011;12395;42.808;23.408;2023-10-13T04:38:47;15.07;;;6.85;;
24279;SDS011;12395;42.808;23.408;2023-10-13T04:41:38;12.93;;;6.47;;
24279;SDS011;12395;42.808;23.408;2023-10-13T04:46:52;11.50;;;6.88;;
24279;SDS011;12395;42.808;23.408;2023-10-13T04:49:24;13.18;;;6.63;;
24279;SDS011;12395;42.808;23.408;2023-10-13T04:51:58;15.18;;;7.35;;
24279;SDS011;12395;42.808;23.408;2023-10-13T04:54:26;14.23;;;7.00;;
24279;SDS011;12395;42.808;23.408;2023-10-13T04:56:58;11.50;;;6.75;;
24279;SDS011;12395;42.808;23.408;2023-10-13T04:59:42;13.05;;;6.65;;
24279;SDS011;12395;42.808;23.408;2023-10-13T05:02:26;12.63;;;7.50;;
24279;SDS011;12395;42.808;23.408;2023-10-13T05:05:10;13.68;;;7.57;;
24279;SDS011;12395;42.808;23.408;2023-10-13T05:07:43;15.45;;;7.82;;
24279;SDS011;12395;42.808;23.408;2023-10-13T05:10:29;14.68;;;7.05;;
24279;SDS011;12395;42.808;23.408;2023-10-13T05:13:13;10.75;;;7.05;;
24279;SDS011;12395;42.808;23.408;2023-10-13T05:15:57;14.85;;;7.28;;
24279;SDS011;12395;42.808;23.408;2023-10-13T05:18:41;14.55;;;7.10;;
24279;SDS011;12395;42.808;23.408;2023-10-13T05:21:25;12.57;;;6.55;;
24279;SDS011;12395;42.808;23.408;2023-10-13T05:24:09;10.57;;;6.22;;
24279;SDS011;12395;42.808;23.408;2023-10-13T05:26:53;13.40;;;6.88;;
24279;SDS011;12395;42.808;23.408;2023-10-13T05:29:41;12.25;;;6.82;;
24279;SDS011;12395;42.808;23.408;2023-10-13T05:32:26;11.88;;;7.43;;
24279;SDS011;12395;42.808;23.408;2023-10-13T05:35:11;14.63;;;7.20;;
24279;SDS011;12395;42.808;23.408;2023-10-13T05:37:55;11.52;;;6.47;;
24279;SDS011;12395;42.808;23.408;2023-10-13T05:40:39;13.13;;;6.75;;
24279;SDS011;12395;42.808;23.408;2023-10-13T05:43:23;13.80;;;6.55;;
24279;SDS011;12395;42.808;23.408;2023-10-13T05:46:07;13.02;;;6.53;;
24279;SDS011;12395;42.808;23.408;2023-10-13T05:48:32;13.00;;;6.60;;
24279;SDS011;12395;42.808;23.408;2023-10-13T05:51:27;14.52;;;7.50;;
24279;SDS011;12395;42.808;23.408;2023-10-13T05:54:11;13.50;;;7.40;;
24279;SDS011;12395;42.808;23.408;2023-10-13T05:56:38;12.25;;;7.47;;
24279;SDS011;12395;42.808;23.408;2023-10-13T05:59:23;14.70;;;7.70;;
24279;SDS011;12395;42.808;23.408;2023-10-13T06:02:07;13.82;;;7.95;;
24279;SDS011;12395;42.808;23.408;2023-10-13T06:04:51;16.48;;;8.30;;
24279;SDS011;12395;42.808;23.408;2023-10-13T06:07:34;16.38;;;7.88;;
24279;SDS011;12395;42.808;23.408;2023-10-13T06:10:18;14.40;;;8.77;;
24279;SDS011;12395;42.808;23.408;2023-10-13T06:13:02;15.73;;;9.60;;
24279;SDS011;12395;42.808;23.408;2023-10-13T06:15:46;18.65;;;9.85;;
24279;SDS011;12395;42.808;23.408;2023-10-13T06:18:30;17.40;;;9.63;;
24279;SDS011;12395;42.808;23.408;2023-10-13T06:21:14;14.55;;;8.73;;
24279;SDS011;12395;42.808;23.408;2023-10-13T06:23:58;16.50;;;8.90;;
24279;SDS011;12395;42.808;23.408;2023-10-13T06:26:42;17.45;;;9.63;;
24279;SDS011;12395;42.808;23.408;2023-10-13T06:29:26;14.45;;;8.93;;
24279;SDS011;12395;42.808;23.408;2023-10-13T06:31:51;15.85;;;9.05;;
24279;SDS011;12395;42.808;23.408;2023-10-13T06:34:17;22.33;;;9.52;;
24279;SDS011;12395;42.808;23.408;2023-10-13T06:36:46;16.88;;;9.25;;
24279;SDS011;12395;42.808;23.408;2023-10-13T06:39:12;16.92;;;9.38;;
24279;SDS011;12395;42.808;23.408;2023-10-13T06:41:56;16.70;;;9.23;;
24279;SDS011;12395;42.808;23.408;2023-10-13T06:44:22;16.90;;;9.07;;
24279;SDS011;12395;42.808;23.408;2023-10-13T06:46:47;18.20;;;9.40;;
24279;SDS011;12395;42.808;23.408;2023-10-13T06:49:14;17.45;;;9.65;;
24279;SDS011;12395;42.808;23.408;2023-10-13T06:51:43;20.10;;;9.20;;
24279;SDS011;12395;42.808;23.408;2023-10-13T06:54:11;16.30;;;8.77;;
24279;SDS011;12395;42.808;23.408;2023-10-13T06:56:45;14.63;;;8.52;;
24279;SDS011;12395;42.808;23.408;2023-10-13T06:59:11;15.75;;;8.70;;
24279;SDS011;12395;42.808;23.408;2023-10-13T07:01:39;18.02;;;8.90;;
24279;SDS011;12395;42.808;23.408;2023-10-13T07:04:09;15.65;;;8.35;;
24279;SDS011;12395;42.808;23.408;2023-10-13T07:06:41;15.23;;;9.18;;
24279;SDS011;12395;42.808;23.408;2023-10-13T07:09:12;18.75;;;9.00;;
24279;SDS011;12395;42.808;23.408;2023-10-13T07:11:58;17.25;;;8.90;;
24279;SDS011;12395;42.808;23.408;2023-10-13T07:14:26;14.80;;;8.00;;
24279;SDS011;12395;42.808;23.408;2023-10-13T07:16:56;14.05;;;7.15;;
24279;SDS011;12395;42.808;23.408;2023-10-13T07:19:28;16.42;;;8.30;;
24279;SDS011;12395;42.808;23.408;2023-10-13T07:21:57;15.65;;;8.07;;
24279;SDS011;12395;42.808;23.408;2023-10-13T07:24:27;15.50;;;8.20;;
24279;SDS011;12395;42.808;23.408;2023-10-13T07:26:56;15.65;;;8.13;;
24279;SDS011;12395;42.808;23.408;2023-10-13T07:29:33;15.50;;;7.55;;
24279;SDS011;12395;42.808;23.408;2023-10-13T07:32:00;15.23;;;7.88;;
24279;SDS011;12395;42.808;23.408;2023-10-13T07:34:37;13.65;;;7.70;;
24279;SDS011;12395;42.808;23.408;2023-10-13T07:37:04;14.50;;;7.97;;
24279;SDS011;12395;42.808;23.408;2023-10-13T07:39:33;17.90;;;8.02;;
24279;SDS011;12395;42.808;23.408;2023-10-13T07:42:04;16.25;;;6.97;;
24279;SDS011;12395;42.808;23.408;2023-10-13T07:44:40;14.60;;;7.70;;
24279;SDS011;12395;42.808;23.408;2023-10-13T07:47:11;13.85;;;7.38;;
24279;SDS011;12395;42.808;23.408;2023-10-13T07:49:37;15.48;;;7.40;;
24279;SDS011;12395;42.808;23.408;2023-10-13T07:52:08;15.98;;;7.32;;
24279;SDS011;12395;42.808;23.408;2023-10-13T07:54:47;14.15;;;6.85;;
24279;SDS011;12395;42.808;23.408;2023-10-13T07:57:31;16.45;;;7.72;;
24279;SDS011;12395;42.808;23.408;2023-10-13T07:59:57;16.42;;;6.82;;
24279;SDS011;12395;42.808;23.408;2023-10-13T08:02:36;13.93;;;6.80;;
24279;SDS011;12395;42.808;23.408;2023-10-13T08:05:14;13.15;;;7.35;;
24279;SDS011;12395;42.808;23.408;2023-10-13T08:08:04;14.20;;;6.45;;
24279;SDS011;12395;42.808;23.408;2023-10-13T08:10:39;14.45;;;6.47;;
24279;SDS011;12395;42.808;23.408;2023-10-13T08:13:07;14.90;;;7.38;;
24279;SDS011;12395;42.808;23.408;2023-10-13T08:15:37;14.32;;;6.70;;
24279;SDS011;12395;42.808;23.408;2023-10-13T08:18:12;13.85;;;7.25;;
24279;SDS011;12395;42.808;23.408;2023-10-13T08:20:45;14.52;;;6.45;;
24279;SDS011;12395;42.808;23.408;2023-10-13T08:23:10;15.15;;;6.60;;
24279;SDS011;12395;42.808;23.408;2023-10-13T08:25:39;15.50;;;6.47;;
24279;SDS011;12395;42.808;23.408;2023-10-13T08:28:23;17.17;;;6.82;;
24279;SDS011;12395;42.808;23.408;2023-10-13T08:31:07;12.90;;;6.55;;
24279;SDS011;12395;42.808;23.408;2023-10-13T08:33:50;12.70;;;6.75;;
24279;SDS011;12395;42.808;23.408;2023-10-13T08:36:22;13.82;;;6.68;;
24279;SDS011;12395;42.808;23.408;2023-10-13T08:38:54;16.85;;;7.55;;
24279;SDS011;12395;42.808;23.408;2023-10-13T08:41:21;16.98;;;7.68;;
24279;SDS011;12395;42.808;23.408;2023-10-13T08:43:47;18.55;;;7.60;;
24279;SDS011;12395;42.808;23.408;2023-10-13T08:46:16;12.27;;;6.20;;
24279;SDS011;12395;42.808;23.408;2023-10-13T08:48:58;12.80;;;6.85;;
24279;SDS011;12395;42.808;23.408;2023-10-13T08:51:39;11.20;;;5.95;;
24279;SDS011;12395;42.808;23.408;2023-10-13T08:54:12;10.48;;;5.93;;
24279;SDS011;12395;42.808;23.408;2023-10-13T08:56:48;10.77;;;6.30;;
24279;SDS011;12395;42.808;23.408;2023-10-13T08:59:21;9.98;;;5.72;;
24279;SDS011;12395;42.808;23.408;2023-10-13T09:01:48;12.68;;;5.80;;
24279;SDS011;12395;42.808;23.408;2023-10-13T09:04:17;10.25;;;5.80;;
24279;SDS011;12395;42.808;23.408;2023-10-13T09:06:53;14.38;;;6.20;;
24279;SDS011;12395;42.808;23.408;2023-10-13T09:09:33;13.27;;;6.03;;
24279;SDS011;12395;42.808;23.408;2023-10-13T09:12:10;10.05;;;5.40;;
24279;SDS011;12395;42.808;23.408;2023-10-13T09:14:38;10.02;;;5.82;;
24279;SDS011;12395;42.808;23.408;2023-10-13T09:17:21;9.55;;;5.45;;
24279;SDS011;12395;42.808;23.408;2023-10-13T09:22:46;16.15;;;5.18;;
24279;SDS011;12395;42.808;23.408;2023-10-13T09:25:30;12.55;;;5.53;;
24279;SDS011;12395;42.808;23.408;2023-10-13T09:28:00;14.23;;;5.43;;
24279;SDS011;12395;42.808;23.408;2023-10-13T09:35:33;13.85;;;5.20;;
24279;SDS011;12395;42.808;23.408;2023-10-13T09:38:02;14.43;;;6.05;;
24279;SDS011;12395;42.808;23.408;2023-10-13T09:40:28;11.45;;;5.88;;
24279;SDS011;12395;42.808;23.408;2023-10-13T09:42:57;14.82;;;5.95;;
24279;SDS011;12395;42.808;23.408;2023-10-13T09:45:26;12.30;;;6.05;;
24279;SDS011;12395;42.808;23.408;2023-10-13T09:47:54;13.40;;;6.78;;
24279;SDS011;12395;42.808;23.408;2023-10-13T09:50:25;13.45;;;6.43;;
24279;SDS011;12395;42.808;23.408;2023-10-13T09:52:58;10.10;;;5.95;;
24279;SDS011;12395;42.808;23.408;2023-10-13T09:55:29;14.68;;;6.45;;
24279;SDS011;12395;42.808;23.408;2023-10-13T09:58:18;12.40;;;6.18;;
24279;SDS011;12395;42.808;23.408;2023-10-13T10:00:47;13.60;;;5.75;;
24279;SDS011;12395;42.808;23.408;2023-10-13T10:03:32;12.45;;;5.55;;
24279;SDS011;12395;42.808;23.408;2023-10-13T10:06:20;13.10;;;5.53;;
24279;SDS011;12395;42.808;23.408;2023-10-13T10:09:03;13.73;;;5.78;;
24279;SDS011;12395;42.808;23.408;2023-10-13T10:17:43;10.13;;;5.38;;
24279;SDS011;12395;42.808;23.408;2023-10-13T10:20:09;10.18;;;5.32;;
24279;SDS011;12395;42.808;23.408;2023-10-13T10:23:01;13.98;;;5.35;;
24279;SDS011;12395;42.808;23.408;2023-10-13T10:25:30;9.48;;;5.22;;
24279;SDS011;12395;42.808;23.408;2023-10-13T10:28:04;10.63;;;5.50;;
24279;SDS011;12395;42.808;23.408;2023-10-13T10:30:32;12.13;;;5.18;;
24279;SDS011;12395;42.808;23.408;2023-10-13T10:32:59;11.20;;;5.40;;
24279;SDS011;12395;42.808;23.408;2023-10-13T10:41:07;11.77;;;5.15;;
24279;SDS011;12395;42.808;23.408;2023-10-13T10:43:38;9.25;;;4.93;;
24279;SDS011;12395;42.808;23.408;2023-10-13T10:46:28;12.93;;;5.35;;
24279;SDS011;12395;42.808;23.408;2023-10-13T10:48:57;10.15;;;5.15;;
24279;SDS011;12395;42.808;23.408;2023-10-13T10:51:26;12.15;;;4.70;;
24279;SDS011;12395;42.808;23.408;2023-10-13T10:53:56;10.45;;;4.90;;
24279;SDS011;12395;42.808;23.408;2023-10-13T10:56:26;11.65;;;5.80;;
24279;SDS011;12395;42.808;23.408;2023-10-13T10:59:02;8.27;;;4.60;;
24279;SDS011;12395;42.808;23.408;2023-10-13T11:01:44;13.57;;;4.95;;
24279;SDS011;12395;42.808;23.408;2023-10-13T11:04:12;11.82;;;4.95;;
24279;SDS011;12395;42.808;23.408;2023-10-13T11:06:49;9.68;;;4.65;;
24279;SDS011;12395;42.808;23.408;2023-10-13T11:09:41;12.07;;;4.88;;
24279;SDS011;12395;42.808;23.408;2023-10-13T11:17:39;10.05;;;4.40;;
24279;SDS011;12395;42.808;23.408;2023-10-13T11:20:11;10.07;;;4.60;;
24279;SDS011;12395;42.808;23.408;2023-10-13T11:22:41;8.55;;;4.40;;
24279;SDS011;12395;42.808;23.408;2023-10-13T11:25:19;8.95;;;4.60;;
24279;SDS011;12395;42.808;23.408;2023-10-13T11:27:48;10.63;;;4.97;;
24279;SDS011;12395;42.808;23.408;2023-10-13T11:30:16;8.55;;;4.30;;
24279;SDS011;12395;42.808;23.408;2023-10-13T11:35:31;8.73;;;4.30;;
24279;SDS011;12395;42.808;23.408;2023-10-13T11:38:18;12.73;;;4.57;;
24279;SDS011;12395;42.808;23.408;2023-10-13T11:40:55;7.68;;;4.00;;
24279;SDS011;12395;42.808;23.408;2023-10-13T11:43:28;10.15;;;4.57;;
24279;SDS011;12395;42.808;23.408;2023-10-13T11:45:56;10.10;;;4.38;;
24279;SDS011;12395;42.808;23.408;2023-10-13T11:48:34;10.85;;;4.28;;
24279;SDS011;12395;42.808;23.408;2023-10-13T11:51:03;9.98;;;4.00;;
24279;SDS011;12395;42.808;23.408;2023-10-13T11:53:33;10.55;;;4.03;;
24279;SDS011;12395;42.808;23.408;2023-10-13T11:56:00;8.55;;;3.75;;
24279;SDS011;12395;42.808;23.408;2023-10-13T11:58:25;9.40;;;4.05;;
24279;SDS011;12395;42.808;23.408;2023-10-13T12:00:51;7.93;;;3.53;;
24279;SDS011;12395;42.808;23.408;2023-10-13T12:03:18;9.68;;;3.53;;
24279;SDS011;12395;42.808;23.408;2023-10-13T12:06:02;8.55;;;3.50;;
24279;SDS011;12395;42.808;23.408;2023-10-13T12:09:07;6.60;;;3.20;;
24279;SDS011;12395;42.808;23.408;2023-10-13T12:11:59;8.07;;;3.55;;
24279;SDS011;12395;42.808;23.408;2023-10-13T12:14:29;6.28;;;3.20;;
24279;SDS011;12395;42.808;23.408;2023-10-13T12:17:01;6.35;;;2.78;;
24279;SDS011;12395;42.808;23.408;2023-10-13T12:19:36;5.57;;;2.70;;
24279;SDS011;12395;42.808;23.408;2023-10-13T12:22:03;5.80;;;2.90;;
24279;SDS011;12395;42.808;23.408;2023-10-13T12:24:34;8.02;;;2.83;;
24279;SDS011;12395;42.808;23.408;2023-10-13T12:26:59;5.60;;;2.75;;
24279;SDS011;12395;42.808;23.408;2023-10-13T12:29:25;6.47;;;2.53;;
24279;SDS011;12395;42.808;23.408;2023-10-13T12:32:00;6.32;;;2.60;;
24279;SDS011;12395;42.808;23.408;2023-10-13T12:34:36;8.93;;;3.20;;
24279;SDS011;12395;42.808;23.408;2023-10-13T12:37:20;6.50;;;2.60;;
24279;SDS011;12395;42.808;23.408;2023-10-13T12:40:22;9.90;;;2.85;;
24279;SDS011;12395;42.808;23.408;2023-10-13T12:43:05;7.32;;;2.50;;
24279;SDS011;12395;42.808;23.408;2023-10-13T12:45:50;4.53;;;2.70;;
24279;SDS011;12395;42.808;23.408;2023-10-13T12:48:35;5.85;;;2.50;;
24279;SDS011;12395;42.808;23.408;2023-10-13T12:51:20;6.68;;;2.40;;
24279;SDS011;12395;42.808;23.408;2023-10-13T12:53:49;8.60;;;2.60;;
24279;SDS011;12395;42.808;23.408;2023-10-13T12:56:17;5.95;;;2.47;;
24279;SDS011;12395;42.808;23.408;2023-10-13T12:58:43;10.30;;;2.50;;
24279;SDS011;12395;42.808;23.408;2023-10-13T13:01:19;3.88;;;2.55;;
24279;SDS011;12395;42.808;23.408;2023-10-13T13:03:45;5.40;;;2.20;;
24279;SDS011;12395;42.808;23.408;2023-10-13T13:06:15;4.50;;;2.28;;
24279;SDS011;12395;42.808;23.408;2023-10-13T13:08:53;6.85;;;2.40;;
24279;SDS011;12395;42.808;23.408;2023-10-13T13:11:20;5.30;;;2.28;;
24279;SDS011;12395;42.808;23.408;2023-10-13T13:13:46;4.30;;;2.15;;
24279;SDS011;12395;42.808;23.408;2023-10-13T13:16:12;4.90;;;2.30;;
24279;SDS011;12395;42.808;23.408;2023-10-13T13:18:38;6.57;;;2.53;;
24279;SDS011;12395;42.808;23.408;2023-10-13T13:21:04;5.55;;;2.50;;
24279;SDS011;12395;42.808;23.408;2023-10-13T13:23:31;7.35;;;2.90;;
24279;SDS011;12395;42.808;23.408;2023-10-13T13:25:59;8.60;;;2.75;;
24279;SDS011;12395;42.808;23.408;2023-10-13T13:28:25;7.28;;;2.10;;
24279;SDS011;12395;42.808;23.408;2023-10-13T13:30:53;4.72;;;2.25;;
24279;SDS011;12395;42.808;23.408;2023-10-13T13:33:19;5.63;;;2.50;;
24279;SDS011;12395;42.808;23.408;2023-10-13T13:35:48;5.90;;;2.67;;
24279;SDS011;12395;42.808;23.408;2023-10-13T13:38:14;7.18;;;2.70;;
24279;SDS011;12395;42.808;23.408;2023-10-13T13:40:47;6.97;;;2.67;;
24279;SDS011;12395;42.808;23.408;2023-10-13T13:43:19;6.55;;;2.60;;
24279;SDS011;12395;42.808;23.408;2023-10-13T13:46:07;5.13;;;2.63;;
24279;SDS011;12395;42.808;23.408;2023-10-13T13:48:36;6.75;;;2.85;;
24279;SDS011;12395;42.808;23.408;2023-10-13T13:51:05;4.15;;;2.00;;
24279;SDS011;12395;42.808;23.408;2023-10-13T13:53:38;2.78;;;1.92;;
24279;SDS011;12395;42.808;23.408;2023-10-13T13:56:07;5.03;;;2.00;;
24279;SDS011;12395;42.808;23.408;2023-10-13T13:58:33;6.25;;;1.90;;
24279;SDS011;12395;42.808;23.408;2023-10-13T14:00:59;5.53;;;1.85;;
24279;SDS011;12395;42.808;23.408;2023-10-13T14:03:40;4.35;;;1.83;;
24279;SDS011;12395;42.808;23.408;2023-10-13T14:06:19;5.18;;;1.80;;
24279;SDS011;12395;42.808;23.408;2023-10-13T14:08:48;4.38;;;1.65;;
24279;SDS011;12395;42.808;23.408;2023-10-13T14:11:22;6.13;;;1.77;;
24279;SDS011;12395;42.808;23.408;2023-10-13T14:14:11;4.20;;;1.90;;
24279;SDS011;12395;42.808;23.408;2023-10-13T14:16:39;4.40;;;1.83;;
24279;SDS011;12395;42.808;23.408;2023-10-13T14:19:15;4.03;;;1.55;;
24279;SDS011;12395;42.808;23.408;2023-10-13T14:21:56;5.32;;;1.80;;
24279;SDS011;12395;42.808;23.408;2023-10-13T14:24:22;4.85;;;1.50;;
24279;SDS011;12395;42.808;23.408;2023-10-13T14:27:08;5.55;;;1.83;;
24279;SDS011;12395;42.808;23.408;2023-10-13T14:29:39;3.92;;;1.60;;
24279;SDS011;12395;42.808;23.408;2023-10-13T14:32:08;4.80;;;1.60;;
24279;SDS011;12395;42.808;23.408;2023-10-13T14:34:43;2.53;;;1.45;;
24279;SDS011;12395;42.808;23.408;2023-10-13T14:37:19;4.40;;;1.85;;
24279;SDS011;12395;42.808;23.408;2023-10-13T14:39:51;6.18;;;1.70;;
24279;SDS011;12395;42.808;23.408;2023-10-13T14:42:21;3.15;;;1.50;;
24279;SDS011;12395;42.808;23.408;2023-10-13T14:44:50;4.38;;;1.40;;
24279;SDS011;12395;42.808;23.408;2023-10-13T14:47:29;5.55;;;1.77;;
24279;SDS011;12395;42.808;23.408;2023-10-13T14:49:55;5.20;;;1.85;;
24279;SDS011;12395;42.808;23.408;2023-10-13T14:52:25;4.68;;;1.40;;
24279;SDS011;12395;42.808;23.408;2023-10-13T14:54:50;4.07;;;1.65;;
24279;SDS011;12395;42.808;23.408;2023-10-13T14:57:20;5.82;;;1.60;;
24279;SDS011;12395;42.808;23.408;2023-10-13T14:59:55;2.70;;;1.48;;
24279;SDS011;12395;42.808;23.408;2023-10-13T15:02:20;5.72;;;1.40;;
24279;SDS011;12395;42.808;23.408;2023-10-13T15:04:47;6.05;;;1.40;;
24279;SDS011;12395;42.808;23.408;2023-10-13T15:07:16;2.97;;;1.27;;
24279;SDS011;12395;42.808;23.408;2023-10-13T15:09:43;3.85;;;1.60;;
24279;SDS011;12395;42.808;23.408;2023-10-13T15:12:09;2.95;;;1.30;;
24279;SDS011;12395;42.808;23.408;2023-10-13T15:14:36;3.58;;;1.40;;
24279;SDS011;12395;42.808;23.408;2023-10-13T15:19:31;5.53;;;1.20;;
24279;SDS011;12395;42.808;23.408;2023-10-13T15:22:01;3.65;;;1.40;;
24279;SDS011;12395;42.808;23.408;2023-10-13T15:24:27;7.72;;;1.70;;
24279;SDS011;12395;42.808;23.408;2023-10-13T15:26:53;4.95;;;1.63;;
24279;SDS011;12395;42.808;23.408;2023-10-13T15:29:33;3.45;;;1.15;;
24279;SDS011;12395;42.808;23.408;2023-10-13T15:32:02;7.10;;;1.48;;
24279;SDS011;12395;42.808;23.408;2023-10-13T15:34:28;5.90;;;1.42;;
24279;SDS011;12395;42.808;23.408;2023-10-13T15:36:54;3.83;;;1.30;;
24279;SDS011;12395;42.808;23.408;2023-10-13T15:39:21;3.40;;;1.20;;
24279;SDS011;12395;42.808;23.408;2023-10-13T15:41:53;3.08;;;1.25;;
24279;SDS011;12395;42.808;23.408;2023-10-13T15:44:19;2.90;;;1.40;;
24279;SDS011;12395;42.808;23.408;2023-10-13T15:46:49;5.82;;;1.42;;
24279;SDS011;12395;42.808;23.408;2023-10-13T15:49:18;5.90;;;1.60;;